sensor_id;sensor_type;location;lat;lon;timestamp;temperature;humidity
34201;DHT22;20469;55.638;37.670;2023-02-28T00:01:33;-5.60;99.90
34201;DHT22;20469;55.638;37.670;2023-02-28T00:04:01;-5.60;99.90
34201;DHT22;20469;55.638;37.670;2023-02-28T00:06:29;-5.60;99.90
34201;DHT22;20469;55.638;37.670;2023-02-28T00:08:59;-5.40;99.90
34201;DHT22;20469;55.638;37.670;2023-02-28T00:11:30;-5.60;99.90
34201;DHT22;20469;55.638;37.670;2023-02-28T00:13:58;-5.60;99.90
34201;DHT22;20469;55.638;37.670;2023-02-28T00:18:54;-5.80;99.90
34201;DHT22;20469;55.638;37.670;2023-02-28T00:21:21;-5.80;99.90
34201;DHT22;20469;55.638;37.670;2023-02-28T00:23:50;-5.70;99.90
34201;DHT22;20469;55.638;37.670;2023-02-28T00:26:18;-5.60;99.90
34201;DHT22;20469;55.638;37.670;2023-02-28T00:28:48;-5.70;99.90
34201;DHT22;20469;55.638;37.670;2023-02-28T00:31:20;-5.90;99.90
34201;DHT22;20469;55.638;37.670;2023-02-28T00:33:47;-5.50;99.90
34201;DHT22;20469;55.638;37.670;2023-02-28T00:36:15;-5.70;99.90
34201;DHT22;20469;55.638;37.670;2023-02-28T00:38:43;-5.90;99.90
34201;DHT22;20469;55.638;37.670;2023-02-28T00:41:11;-5.70;99.90
34201;DHT22;20469;55.638;37.670;2023-02-28T00:43:42;-5.90;99.90
34201;DHT22;20469;55.638;37.670;2023-02-28T00:46:10;-5.50;99.90
34201;DHT22;20469;55.638;37.670;2023-02-28T00:48:40;-5.70;99.90
34201;DHT22;20469;55.638;37.670;2023-02-28T00:51:08;-6.00;99.90
34201;DHT22;20469;55.638;37.670;2023-02-28T00:53:35;-6.20;99.90
34201;DHT22;20469;55.638;37.670;2023-02-28T00:56:03;-6.00;99.90
34201;DHT22;20469;55.638;37.670;2023-02-28T00:58:32;-6.10;99.90
34201;DHT22;20469;55.638;37.670;2023-02-28T01:00:59;-6.30;99.90
34201;DHT22;20469;55.638;37.670;2023-02-28T01:03:27;-6.10;99.90
34201;DHT22;20469;55.638;37.670;2023-02-28T01:05:55;-5.90;99.90
34201;DHT22;20469;55.638;37.670;2023-02-28T01:08:23;-5.90;99.90
34201;DHT22;20469;55.638;37.670;2023-02-28T01:10:50;-5.90;99.90
34201;DHT22;20469;55.638;37.670;2023-02-28T01:13:19;-5.70;99.90
34201;DHT22;20469;55.638;37.670;2023-02-28T01:15:54;-6.20;99.90
34201;DHT22;20469;55.638;37.670;2023-02-28T01:18:23;-6.20;99.90
34201;DHT22;20469;55.638;37.670;2023-02-28T01:20:51;-6.40;99.90
34201;DHT22;20469;55.638;37.670;2023-02-28T01:23:20;-6.40;99.90
34201;DHT22;20469;55.638;37.670;2023-02-28T01:25:51;-6.40;99.90
34201;DHT22;20469;55.638;37.670;2023-02-28T01:28:19;-6.40;99.90
34201;DHT22;20469;55.638;37.670;2023-02-28T01:30:50;-6.40;99.90
34201;DHT22;20469;55.638;37.670;2023-02-28T01:33:18;-6.40;99.90
34201;DHT22;20469;55.638;37.670;2023-02-28T01:35:48;-6.30;99.90
34201;DHT22;20469;55.638;37.670;2023-02-28T01:38:15;-6.40;99.90
34201;DHT22;20469;55.638;37.670;2023-02-28T01:40:49;-6.60;99.90
34201;DHT22;20469;55.638;37.670;2023-02-28T01:43:24;-6.60;99.90
34201;DHT22;20469;55.638;37.670;2023-02-28T01:45:54;-6.50;99.90
34201;DHT22;20469;55.638;37.670;2023-02-28T01:48:26;-6.50;99.90
34201;DHT22;20469;55.638;37.670;2023-02-28T01:50:56;-6.50;99.90
34201;DHT22;20469;55.638;37.670;2023-02-28T01:53:33;-6.60;99.90
34201;DHT22;20469;55.638;37.670;2023-02-28T01:56:06;-6.50;99.90
34201;DHT22;20469;55.638;37.670;2023-02-28T01:58:35;-6.70;99.90
34201;DHT22;20469;55.638;37.670;2023-02-28T02:01:03;-6.40;99.90
34201;DHT22;20469;55.638;37.670;2023-02-28T02:03:31;-6.50;99.90
34201;DHT22;20469;55.638;37.670;2023-02-28T02:05:59;-6.60;99.90
34201;DHT22;20469;55.638;37.670;2023-02-28T02:08:29;-6.50;99.90
34201;DHT22;20469;55.638;37.670;2023-02-28T02:11:00;-6.40;99.90
34201;DHT22;20469;55.638;37.670;2023-02-28T02:14:16;-6.50;99.90
34201;DHT22;20469;55.638;37.670;2023-02-28T02:25:30;-6.40;99.90
34201;DHT22;20469;55.638;37.670;2023-02-28T02:34:26;-6.70;99.90
34201;DHT22;20469;55.638;37.670;2023-02-28T02:36:44;-6.60;99.90
34201;DHT22;20469;55.638;37.670;2023-02-28T02:42:00;-6.70;99.90
34201;DHT22;20469;55.638;37.670;2023-02-28T02:45:00;-6.60;99.90
34201;DHT22;20469;55.638;37.670;2023-02-28T02:47:31;-6.50;99.90
34201;DHT22;20469;55.638;37.670;2023-02-28T02:50:07;-6.50;99.90
34201;DHT22;20469;55.638;37.670;2023-02-28T02:52:40;-6.60;99.90
34201;DHT22;20469;55.638;37.670;2023-02-28T02:55:12;-6.70;99.90
34201;DHT22;20469;55.638;37.670;2023-02-28T02:58:12;-6.60;99.90
34201;DHT22;20469;55.638;37.670;2023-02-28T03:00:50;-6.60;99.90
34201;DHT22;20469;55.638;37.670;2023-02-28T03:03:19;-6.60;99.90
34201;DHT22;20469;55.638;37.670;2023-02-28T03:06:00;-6.50;99.90
34201;DHT22;20469;55.638;37.670;2023-02-28T03:08:33;-6.60;99.90
34201;DHT22;20469;55.638;37.670;2023-02-28T03:11:02;-6.50;99.90
34201;DHT22;20469;55.638;37.670;2023-02-28T03:13:42;-6.60;99.90
34201;DHT22;20469;55.638;37.670;2023-02-28T03:27:41;-6.60;99.90
34201;DHT22;20469;55.638;37.670;2023-02-28T03:33:12;-6.50;99.90
34201;DHT22;20469;55.638;37.670;2023-02-28T03:35:49;-6.50;99.90
34201;DHT22;20469;55.638;37.670;2023-02-28T03:41:10;-6.60;99.90
34201;DHT22;20469;55.638;37.670;2023-02-28T03:43:43;-6.60;99.90
34201;DHT22;20469;55.638;37.670;2023-02-28T03:46:15;-6.70;99.90
34201;DHT22;20469;55.638;37.670;2023-02-28T03:48:53;-6.60;99.90
34201;DHT22;20469;55.638;37.670;2023-02-28T03:51:24;-6.60;99.90
34201;DHT22;20469;55.638;37.670;2023-02-28T03:53:58;-6.50;99.90
34201;DHT22;20469;55.638;37.670;2023-02-28T03:56:34;-6.40;99.90
34201;DHT22;20469;55.638;37.670;2023-02-28T03:59:13;-6.60;99.90
34201;DHT22;20469;55.638;37.670;2023-02-28T04:01:44;-6.30;99.90
34201;DHT22;20469;55.638;37.670;2023-02-28T04:04:13;-6.50;99.90
34201;DHT22;20469;55.638;37.670;2023-02-28T04:06:41;-6.40;99.90
34201;DHT22;20469;55.638;37.670;2023-02-28T04:09:13;-6.40;99.90
34201;DHT22;20469;55.638;37.670;2023-02-28T04:11:43;-6.40;99.90
34201;DHT22;20469;55.638;37.670;2023-02-28T04:14:12;-6.40;99.90
34201;DHT22;20469;55.638;37.670;2023-02-28T04:16:41;-6.30;99.90
34201;DHT22;20469;55.638;37.670;2023-02-28T04:19:11;-6.40;99.90
34201;DHT22;20469;55.638;37.670;2023-02-28T04:21:50;-6.40;99.90
34201;DHT22;20469;55.638;37.670;2023-02-28T04:24:23;-6.30;99.90
34201;DHT22;20469;55.638;37.670;2023-02-28T04:26:53;-6.30;99.90
34201;DHT22;20469;55.638;37.670;2023-02-28T04:29:29;-6.40;99.90
34201;DHT22;20469;55.638;37.670;2023-02-28T04:31:59;-6.40;99.90
34201;DHT22;20469;55.638;37.670;2023-02-28T04:34:29;-6.40;99.90
34201;DHT22;20469;55.638;37.670;2023-02-28T04:36:57;-6.40;99.90
34201;DHT22;20469;55.638;37.670;2023-02-28T04:39:39;-6.20;99.90
34201;DHT22;20469;55.638;37.670;2023-02-28T04:42:07;-6.30;99.90
34201;DHT22;20469;55.638;37.670;2023-02-28T04:44:35;-6.20;99.90
34201;DHT22;20469;55.638;37.670;2023-02-28T04:47:02;-6.20;99.90
34201;DHT22;20469;55.638;37.670;2023-02-28T04:49:30;-6.20;99.90
34201;DHT22;20469;55.638;37.670;2023-02-28T04:52:00;-6.10;99.90
34201;DHT22;20469;55.638;37.670;2023-02-28T04:54:28;-6.00;99.90
34201;DHT22;20469;55.638;37.670;2023-02-28T04:56:55;-5.70;99.90
34201;DHT22;20469;55.638;37.670;2023-02-28T04:59:23;-5.50;99.90
34201;DHT22;20469;55.638;37.670;2023-02-28T05:01:51;-5.50;98.50
34201;DHT22;20469;55.638;37.670;2023-02-28T05:04:18;-5.60;90.00
34201;DHT22;20469;55.638;37.670;2023-02-28T05:06:46;-5.50;79.50
34201;DHT22;20469;55.638;37.670;2023-02-28T05:09:13;-5.20;71.50
34201;DHT22;20469;55.638;37.670;2023-02-28T05:11:41;-5.30;56.10
34201;DHT22;20469;55.638;37.670;2023-02-28T05:14:12;-4.70;51.90
34201;DHT22;20469;55.638;37.670;2023-02-28T05:16:40;-5.00;34.30
34201;DHT22;20469;55.638;37.670;2023-02-28T05:19:08;-4.90;25.80
34201;DHT22;20469;55.638;37.670;2023-02-28T05:21:40;-5.30;17.50
34201;DHT22;20469;55.638;37.670;2023-02-28T05:24:12;-5.80;17.20
34201;DHT22;20469;55.638;37.670;2023-02-28T05:26:41;-5.80;18.30
34201;DHT22;20469;55.638;37.670;2023-02-28T05:29:10;-5.80;16.70
34201;DHT22;20469;55.638;37.670;2023-02-28T05:31:38;-5.80;16.30
34201;DHT22;20469;55.638;37.670;2023-02-28T05:34:06;-5.80;13.70
34201;DHT22;20469;55.638;37.670;2023-02-28T05:36:33;-5.80;11.20
34201;DHT22;20469;55.638;37.670;2023-02-28T05:39:07;-5.70;10.20
34201;DHT22;20469;55.638;37.670;2023-02-28T05:41:43;-5.70;9.00
34201;DHT22;20469;55.638;37.670;2023-02-28T05:44:11;-5.70;6.30
34201;DHT22;20469;55.638;37.670;2023-02-28T05:46:39;-5.70;5.50
34201;DHT22;20469;55.638;37.670;2023-02-28T05:49:07;-5.60;4.20
34201;DHT22;20469;55.638;37.670;2023-02-28T05:51:35;-5.50;2.80
34201;DHT22;20469;55.638;37.670;2023-02-28T05:54:07;-5.60;1.00
34201;DHT22;20469;55.638;37.670;2023-02-28T05:56:35;-5.50;1.00
34201;DHT22;20469;55.638;37.670;2023-02-28T05:59:05;-5.50;1.00
34201;DHT22;20469;55.638;37.670;2023-02-28T06:01:52;-5.40;1.00
34201;DHT22;20469;55.638;37.670;2023-02-28T06:04:21;-5.40;1.00
34201;DHT22;20469;55.638;37.670;2023-02-28T06:06:58;-5.30;1.00
34201;DHT22;20469;55.638;37.670;2023-02-28T06:09:25;-5.20;1.00
34201;DHT22;20469;55.638;37.670;2023-02-28T06:11:53;-5.20;1.00
34201;DHT22;20469;55.638;37.670;2023-02-28T06:14:21;-5.10;1.00
34201;DHT22;20469;55.638;37.670;2023-02-28T06:16:48;-5.10;1.00
34201;DHT22;20469;55.638;37.670;2023-02-28T06:19:16;-5.10;1.00
34201;DHT22;20469;55.638;37.670;2023-02-28T06:21:44;-5.10;1.00
34201;DHT22;20469;55.638;37.670;2023-02-28T06:24:12;-5.10;1.00
34201;DHT22;20469;55.638;37.670;2023-02-28T06:26:40;-5.00;1.00
34201;DHT22;20469;55.638;37.670;2023-02-28T06:29:07;-5.00;1.00
34201;DHT22;20469;55.638;37.670;2023-02-28T06:31:36;-5.00;1.00
34201;DHT22;20469;55.638;37.670;2023-02-28T06:34:04;-4.90;1.00
34201;DHT22;20469;55.638;37.670;2023-02-28T06:36:32;-4.80;1.00
34201;DHT22;20469;55.638;37.670;2023-02-28T06:39:00;-4.70;1.00
34201;DHT22;20469;55.638;37.670;2023-02-28T06:41:27;-4.50;1.00
34201;DHT22;20469;55.638;37.670;2023-02-28T06:44:00;-4.50;1.00
34201;DHT22;20469;55.638;37.670;2023-02-28T06:46:27;-4.40;1.00
34201;DHT22;20469;55.638;37.670;2023-02-28T06:48:55;-4.20;1.00
34201;DHT22;20469;55.638;37.670;2023-02-28T06:51:23;-4.10;1.00
34201;DHT22;20469;55.638;37.670;2023-02-28T06:53:51;-3.90;1.00
34201;DHT22;20469;55.638;37.670;2023-02-28T06:56:19;-4.00;1.00
34201;DHT22;20469;55.638;37.670;2023-02-28T06:58:49;-3.60;1.00
34201;DHT22;20469;55.638;37.670;2023-02-28T07:01:17;-3.70;1.00
34201;DHT22;20469;55.638;37.670;2023-02-28T07:03:46;-4.00;1.00
34201;DHT22;20469;55.638;37.670;2023-02-28T07:06:14;-3.90;1.00
34201;DHT22;20469;55.638;37.670;2023-02-28T07:08:41;-3.70;1.00
34201;DHT22;20469;55.638;37.670;2023-02-28T07:11:09;-3.70;1.00
34201;DHT22;20469;55.638;37.670;2023-02-28T07:13:36;-3.80;1.00
34201;DHT22;20469;55.638;37.670;2023-02-28T07:16:07;-3.70;1.00
34201;DHT22;20469;55.638;37.670;2023-02-28T07:18:37;-3.50;1.00
34201;DHT22;20469;55.638;37.670;2023-02-28T07:21:07;-3.40;1.00
34201;DHT22;20469;55.638;37.670;2023-02-28T07:23:36;-3.60;1.00
34201;DHT22;20469;55.638;37.670;2023-02-28T07:26:05;-3.50;1.00
34201;DHT22;20469;55.638;37.670;2023-02-28T07:28:34;-3.50;1.00
34201;DHT22;20469;55.638;37.670;2023-02-28T07:31:05;-3.20;1.00
34201;DHT22;20469;55.638;37.670;2023-02-28T07:33:37;-3.20;1.00
34201;DHT22;20469;55.638;37.670;2023-02-28T07:36:07;-3.20;1.00
34201;DHT22;20469;55.638;37.670;2023-02-28T07:38:36;-3.00;1.00
34201;DHT22;20469;55.638;37.670;2023-02-28T07:41:04;-3.00;1.00
34201;DHT22;20469;55.638;37.670;2023-02-28T07:43:32;-3.00;1.00
34201;DHT22;20469;55.638;37.670;2023-02-28T07:46:09;-3.00;1.00
34201;DHT22;20469;55.638;37.670;2023-02-28T07:48:37;-2.60;1.00
34201;DHT22;20469;55.638;37.670;2023-02-28T07:51:08;-3.00;1.00
34201;DHT22;20469;55.638;37.670;2023-02-28T07:53:35;-3.10;1.00
34201;DHT22;20469;55.638;37.670;2023-02-28T07:56:03;-3.00;1.00
34201;DHT22;20469;55.638;37.670;2023-02-28T07:58:31;-2.90;1.00
34201;DHT22;20469;55.638;37.670;2023-02-28T08:01:06;-2.60;1.00
34201;DHT22;20469;55.638;37.670;2023-02-28T08:03:35;-2.60;1.00
34201;DHT22;20469;55.638;37.670;2023-02-28T08:06:04;-2.60;1.00
34201;DHT22;20469;55.638;37.670;2023-02-28T08:08:33;-2.40;1.00
34201;DHT22;20469;55.638;37.670;2023-02-28T08:11:05;-2.30;1.00
34201;DHT22;20469;55.638;37.670;2023-02-28T08:13:32;-2.00;1.00
34201;DHT22;20469;55.638;37.670;2023-02-28T08:16:01;-1.80;1.00
34201;DHT22;20469;55.638;37.670;2023-02-28T08:18:29;-1.30;1.00
34201;DHT22;20469;55.638;37.670;2023-02-28T08:20:57;-1.80;1.00
34201;DHT22;20469;55.638;37.670;2023-02-28T08:23:24;-2.20;1.00
34201;DHT22;20469;55.638;37.670;2023-02-28T08:25:56;-2.20;1.00
34201;DHT22;20469;55.638;37.670;2023-02-28T08:28:23;-1.60;1.00
34201;DHT22;20469;55.638;37.670;2023-02-28T08:30:54;-2.10;1.00
34201;DHT22;20469;55.638;37.670;2023-02-28T08:33:22;-2.10;1.00
34201;DHT22;20469;55.638;37.670;2023-02-28T08:35:53;-2.00;1.00
34201;DHT22;20469;55.638;37.670;2023-02-28T08:38:22;-2.20;1.00
34201;DHT22;20469;55.638;37.670;2023-02-28T08:40:53;-2.10;1.00
34201;DHT22;20469;55.638;37.670;2023-02-28T08:43:24;-1.80;1.00
34201;DHT22;20469;55.638;37.670;2023-02-28T08:45:53;-1.70;1.00
34201;DHT22;20469;55.638;37.670;2023-02-28T08:48:29;-1.30;1.00
34201;DHT22;20469;55.638;37.670;2023-02-28T08:51:00;-1.00;1.00
34201;DHT22;20469;55.638;37.670;2023-02-28T08:53:34;-1.30;1.00
34201;DHT22;20469;55.638;37.670;2023-02-28T08:56:09;-1.20;1.00
34201;DHT22;20469;55.638;37.670;2023-02-28T08:58:37;-1.20;1.00
34201;DHT22;20469;55.638;37.670;2023-02-28T09:01:17;-1.60;1.00
34201;DHT22;20469;55.638;37.670;2023-02-28T09:03:47;-1.70;1.00
34201;DHT22;20469;55.638;37.670;2023-02-28T09:06:17;-1.60;1.00
34201;DHT22;20469;55.638;37.670;2023-02-28T09:08:46;-1.60;1.00
34201;DHT22;20469;55.638;37.670;2023-02-28T09:11:13;-1.80;1.00
34201;DHT22;20469;55.638;37.670;2023-02-28T09:13:41;-1.90;1.00
34201;DHT22;20469;55.638;37.670;2023-02-28T09:16:12;-2.00;1.00
34201;DHT22;20469;55.638;37.670;2023-02-28T09:18:40;-1.90;1.00
34201;DHT22;20469;55.638;37.670;2023-02-28T09:21:10;-1.80;1.00
34201;DHT22;20469;55.638;37.670;2023-02-28T09:23:42;-1.80;1.00
34201;DHT22;20469;55.638;37.670;2023-02-28T09:26:19;-1.80;1.00
34201;DHT22;20469;55.638;37.670;2023-02-28T09:28:47;-1.60;1.00
34201;DHT22;20469;55.638;37.670;2023-02-28T09:31:16;-1.70;1.00
34201;DHT22;20469;55.638;37.670;2023-02-28T09:33:50;-1.60;1.00
34201;DHT22;20469;55.638;37.670;2023-02-28T09:36:18;-1.60;1.00
34201;DHT22;20469;55.638;37.670;2023-02-28T09:38:47;-1.60;1.00
34201;DHT22;20469;55.638;37.670;2023-02-28T09:41:22;-1.70;1.00
34201;DHT22;20469;55.638;37.670;2023-02-28T09:43:56;-1.60;1.00
34201;DHT22;20469;55.638;37.670;2023-02-28T09:49:07;-1.50;1.00
34201;DHT22;20469;55.638;37.670;2023-02-28T09:51:59;-1.30;1.00
34201;DHT22;20469;55.638;37.670;2023-02-28T09:54:30;-1.20;1.00
34201;DHT22;20469;55.638;37.670;2023-02-28T09:57:17;-0.90;1.00
34201;DHT22;20469;55.638;37.670;2023-02-28T10:03:00;-1.30;1.00
34201;DHT22;20469;55.638;37.670;2023-02-28T10:05:36;-1.30;1.00
34201;DHT22;20469;55.638;37.670;2023-02-28T10:08:11;-1.10;1.00
34201;DHT22;20469;55.638;37.670;2023-02-28T10:10:49;-1.20;1.00
34201;DHT22;20469;55.638;37.670;2023-02-28T10:16:22;-1.10;3.40
34201;DHT22;20469;55.638;37.670;2023-02-28T10:21:42;-1.10;3.80
34201;DHT22;20469;55.638;37.670;2023-02-28T10:24:35;-1.20;2.20
34201;DHT22;20469;55.638;37.670;2023-02-28T10:29:49;-1.20;5.50
34201;DHT22;20469;55.638;37.670;2023-02-28T10:32:32;-1.10;5.90
34201;DHT22;20469;55.638;37.670;2023-02-28T10:37:48;-1.20;4.20
34201;DHT22;20469;55.638;37.670;2023-02-28T10:43:00;-1.10;4.70
34201;DHT22;20469;55.638;37.670;2023-02-28T10:45:30;-1.20;4.40
34201;DHT22;20469;55.638;37.670;2023-02-28T10:50:59;-1.30;6.30
34201;DHT22;20469;55.638;37.670;2023-02-28T10:53:39;-1.20;8.50
34201;DHT22;20469;55.638;37.670;2023-02-28T10:56:27;-1.40;8.80
34201;DHT22;20469;55.638;37.670;2023-02-28T10:59:36;-1.20;13.80
34201;DHT22;20469;55.638;37.670;2023-02-28T11:04:57;-1.20;14.90
34201;DHT22;20469;55.638;37.670;2023-02-28T11:07:26;-1.20;15.70
34201;DHT22;20469;55.638;37.670;2023-02-28T11:10:16;-1.00;16.90
34201;DHT22;20469;55.638;37.670;2023-02-28T11:12:49;-1.20;18.00
34201;DHT22;20469;55.638;37.670;2023-02-28T11:15:32;-1.20;17.80
34201;DHT22;20469;55.638;37.670;2023-02-28T11:20:50;-1.20;20.20
34201;DHT22;20469;55.638;37.670;2023-02-28T11:23:19;-1.10;24.20
34201;DHT22;20469;55.638;37.670;2023-02-28T11:25:58;-1.20;25.40
34201;DHT22;20469;55.638;37.670;2023-02-28T11:28:31;-1.20;29.80
34201;DHT22;20469;55.638;37.670;2023-02-28T11:31:05;-1.30;32.90
34201;DHT22;20469;55.638;37.670;2023-02-28T11:34:25;-1.30;34.90
34201;DHT22;20469;55.638;37.670;2023-02-28T11:36:55;-1.30;42.40
34201;DHT22;20469;55.638;37.670;2023-02-28T11:39:26;-1.20;48.40
34201;DHT22;20469;55.638;37.670;2023-02-28T11:52:52;-1.10;54.00
34201;DHT22;20469;55.638;37.670;2023-02-28T12:03:22;-1.20;59.50
34201;DHT22;20469;55.638;37.670;2023-02-28T12:06:15;-1.20;66.70
34201;DHT22;20469;55.638;37.670;2023-02-28T12:11:54;-1.10;76.00
34201;DHT22;20469;55.638;37.670;2023-02-28T12:14:59;-1.30;83.00
34201;DHT22;20469;55.638;37.670;2023-02-28T12:28:33;-1.30;99.90
34201;DHT22;20469;55.638;37.670;2023-02-28T12:31:06;-1.30;99.90
34201;DHT22;20469;55.638;37.670;2023-02-28T12:33:43;-1.20;99.90
34201;DHT22;20469;55.638;37.670;2023-02-28T12:36:14;-1.30;99.90
34201;DHT22;20469;55.638;37.670;2023-02-28T12:39:03;-1.50;99.90
34201;DHT22;20469;55.638;37.670;2023-02-28T12:41:39;-1.40;99.90
34201;DHT22;20469;55.638;37.670;2023-02-28T12:44:49;-1.40;99.90
34201;DHT22;20469;55.638;37.670;2023-02-28T12:47:13;-1.40;99.90
34201;DHT22;20469;55.638;37.670;2023-02-28T12:49:48;-1.30;99.90
34201;DHT22;20469;55.638;37.670;2023-02-28T12:52:23;-1.30;99.90
34201;DHT22;20469;55.638;37.670;2023-02-28T12:55:00;-1.50;99.90
34201;DHT22;20469;55.638;37.670;2023-02-28T13:04:12;-1.50;99.90
34201;DHT22;20469;55.638;37.670;2023-02-28T13:09:16;-1.40;99.90
34201;DHT22;20469;55.638;37.670;2023-02-28T13:11:52;-1.40;99.90
34201;DHT22;20469;55.638;37.670;2023-02-28T13:19:44;-1.20;99.90
34201;DHT22;20469;55.638;37.670;2023-02-28T13:22:43;-1.40;99.90
34201;DHT22;20469;55.638;37.670;2023-02-28T13:28:12;-1.30;99.90
34201;DHT22;20469;55.638;37.670;2023-02-28T13:33:35;-1.30;99.90
34201;DHT22;20469;55.638;37.670;2023-02-28T13:36:10;-1.20;99.90
34201;DHT22;20469;55.638;37.670;2023-02-28T13:38:48;-1.30;99.90
34201;DHT22;20469;55.638;37.670;2023-02-28T13:44:21;-1.20;99.90
34201;DHT22;20469;55.638;37.670;2023-02-28T13:49:25;-1.20;99.90
34201;DHT22;20469;55.638;37.670;2023-02-28T13:58:08;-1.10;99.90
34201;DHT22;20469;55.638;37.670;2023-02-28T14:06:36;-1.00;99.90
34201;DHT22;20469;55.638;37.670;2023-02-28T14:11:54;-0.90;99.90
34201;DHT22;20469;55.638;37.670;2023-02-28T14:17:03;-0.90;99.90
34201;DHT22;20469;55.638;37.670;2023-02-28T14:19:32;-0.90;99.90
34201;DHT22;20469;55.638;37.670;2023-02-28T14:28:50;-0.80;99.90
34201;DHT22;20469;55.638;37.670;2023-02-28T14:36:25;-0.80;99.90
34201;DHT22;20469;55.638;37.670;2023-02-28T14:38:57;-0.80;99.90
34201;DHT22;20469;55.638;37.670;2023-02-28T14:41:33;-0.90;99.90
34201;DHT22;20469;55.638;37.670;2023-02-28T14:44:15;-0.80;99.90
34201;DHT22;20469;55.638;37.670;2023-02-28T14:46:45;-0.80;99.90
34201;DHT22;20469;55.638;37.670;2023-02-28T14:49:35;-0.70;99.90
34201;DHT22;20469;55.638;37.670;2023-02-28T14:54:55;-0.80;99.90
34201;DHT22;20469;55.638;37.670;2023-02-28T14:57:34;-0.90;99.90
34201;DHT22;20469;55.638;37.670;2023-02-28T15:00:13;-0.90;99.90
34201;DHT22;20469;55.638;37.670;2023-02-28T15:02:44;-0.90;99.90
34201;DHT22;20469;55.638;37.670;2023-02-28T15:07:39;-0.90;99.90
34201;DHT22;20469;55.638;37.670;2023-02-28T15:10:27;-0.90;99.90
34201;DHT22;20469;55.638;37.670;2023-02-28T15:13:00;-0.80;99.90
34201;DHT22;20469;55.638;37.670;2023-02-28T15:18:48;-0.70;99.90
34201;DHT22;20469;55.638;37.670;2023-02-28T15:21:37;-0.70;99.90
34201;DHT22;20469;55.638;37.670;2023-02-28T15:27:36;-0.60;99.90
34201;DHT22;20469;55.638;37.670;2023-02-28T15:30:14;-0.70;99.90
34201;DHT22;20469;55.638;37.670;2023-02-28T15:32:42;-0.60;99.90
34201;DHT22;20469;55.638;37.670;2023-02-28T15:38:00;-0.60;99.90
34201;DHT22;20469;55.638;37.670;2023-02-28T15:40:32;-0.60;99.90
34201;DHT22;20469;55.638;37.670;2023-02-28T15:43:18;-0.50;99.90
34201;DHT22;20469;55.638;37.670;2023-02-28T15:48:31;-0.50;99.90
34201;DHT22;20469;55.638;37.670;2023-02-28T15:51:27;-0.50;99.90
34201;DHT22;20469;55.638;37.670;2023-02-28T15:53:59;-0.50;99.90
34201;DHT22;20469;55.638;37.670;2023-02-28T15:56:33;-0.40;99.90
34201;DHT22;20469;55.638;37.670;2023-02-28T15:59:04;-0.40;99.90
34201;DHT22;20469;55.638;37.670;2023-02-28T16:01:34;-0.40;99.90
34201;DHT22;20469;55.638;37.670;2023-02-28T16:04:12;-0.30;99.90
34201;DHT22;20469;55.638;37.670;2023-02-28T16:06:47;-0.30;99.90
34201;DHT22;20469;55.638;37.670;2023-02-28T16:09:27;-0.30;99.90
34201;DHT22;20469;55.638;37.670;2023-02-28T16:12:00;-0.30;99.90
34201;DHT22;20469;55.638;37.670;2023-02-28T16:14:29;-0.30;99.90
34201;DHT22;20469;55.638;37.670;2023-02-28T16:17:06;-0.30;99.90
34201;DHT22;20469;55.638;37.670;2023-02-28T16:19:36;-0.20;99.90
34201;DHT22;20469;55.638;37.670;2023-02-28T16:22:03;-0.30;99.90
34201;DHT22;20469;55.638;37.670;2023-02-28T16:24:31;-0.20;99.90
34201;DHT22;20469;55.638;37.670;2023-02-28T16:26:59;-0.20;99.90
34201;DHT22;20469;55.638;37.670;2023-02-28T16:29:31;-0.10;99.90
34201;DHT22;20469;55.638;37.670;2023-02-28T16:32:00;-0.20;99.90
34201;DHT22;20469;55.638;37.670;2023-02-28T16:34:28;-0.10;99.90
34201;DHT22;20469;55.638;37.670;2023-02-28T16:36:55;-0.10;99.90
34201;DHT22;20469;55.638;37.670;2023-02-28T16:39:23;-0.10;99.90
34201;DHT22;20469;55.638;37.670;2023-02-28T16:41:51;-0.10;99.90
34201;DHT22;20469;55.638;37.670;2023-02-28T16:44:29;0.00;99.90
34201;DHT22;20469;55.638;37.670;2023-02-28T16:46:58;0.00;99.90
34201;DHT22;20469;55.638;37.670;2023-02-28T16:49:27;0.10;99.90
34201;DHT22;20469;55.638;37.670;2023-02-28T16:51:54;0.10;99.90
34201;DHT22;20469;55.638;37.670;2023-02-28T16:54:22;0.10;99.90
34201;DHT22;20469;55.638;37.670;2023-02-28T16:56:50;0.10;99.90
34201;DHT22;20469;55.638;37.670;2023-02-28T16:59:23;0.10;99.90
34201;DHT22;20469;55.638;37.670;2023-02-28T17:01:52;0.10;99.90
34201;DHT22;20469;55.638;37.670;2023-02-28T17:04:20;0.10;99.90
34201;DHT22;20469;55.638;37.670;2023-02-28T17:06:49;0.10;99.90
34201;DHT22;20469;55.638;37.670;2023-02-28T17:09:20;0.10;99.90
34201;DHT22;20469;55.638;37.670;2023-02-28T17:11:56;0.10;99.90
34201;DHT22;20469;55.638;37.670;2023-02-28T17:14:24;0.20;99.90
34201;DHT22;20469;55.638;37.670;2023-02-28T17:16:52;0.10;99.90
34201;DHT22;20469;55.638;37.670;2023-02-28T17:19:19;0.10;99.90
34201;DHT22;20469;55.638;37.670;2023-02-28T17:21:50;0.10;99.90
34201;DHT22;20469;55.638;37.670;2023-02-28T17:24:18;0.00;99.90
34201;DHT22;20469;55.638;37.670;2023-02-28T17:26:57;-0.10;99.90
34201;DHT22;20469;55.638;37.670;2023-02-28T17:29:24;-0.10;99.90
34201;DHT22;20469;55.638;37.670;2023-02-28T17:31:52;-0.10;99.90
34201;DHT22;20469;55.638;37.670;2023-02-28T17:34:20;-0.10;99.90
34201;DHT22;20469;55.638;37.670;2023-02-28T17:36:50;-0.20;99.90
34201;DHT22;20469;55.638;37.670;2023-02-28T17:39:19;-0.10;99.90
34201;DHT22;20469;55.638;37.670;2023-02-28T17:41:53;-0.10;99.90
34201;DHT22;20469;55.638;37.670;2023-02-28T17:44:22;-0.20;99.90
34201;DHT22;20469;55.638;37.670;2023-02-28T17:46:51;-0.20;99.90
34201;DHT22;20469;55.638;37.670;2023-02-28T17:49:21;-0.20;99.90
34201;DHT22;20469;55.638;37.670;2023-02-28T17:51:49;-0.20;99.90
34201;DHT22;20469;55.638;37.670;2023-02-28T17:54:17;-0.20;99.90
34201;DHT22;20469;55.638;37.670;2023-02-28T17:56:45;-0.10;99.90
34201;DHT22;20469;55.638;37.670;2023-02-28T17:59:13;-0.10;99.90
34201;DHT22;20469;55.638;37.670;2023-02-28T18:01:41;0.00;99.90
34201;DHT22;20469;55.638;37.670;2023-02-28T18:04:09;-0.10;99.90
34201;DHT22;20469;55.638;37.670;2023-02-28T18:06:41;0.00;99.90
34201;DHT22;20469;55.638;37.670;2023-02-28T18:09:23;0.00;99.90
34201;DHT22;20469;55.638;37.670;2023-02-28T18:11:52;0.00;99.90
34201;DHT22;20469;55.638;37.670;2023-02-28T18:14:22;0.10;99.90
34201;DHT22;20469;55.638;37.670;2023-02-28T18:16:53;-0.10;99.90
34201;DHT22;20469;55.638;37.670;2023-02-28T18:19:22;-0.60;99.90
34201;DHT22;20469;55.638;37.670;2023-02-28T18:21:52;-0.90;99.90
34201;DHT22;20469;55.638;37.670;2023-02-28T18:24:27;-1.20;99.90
34201;DHT22;20469;55.638;37.670;2023-02-28T18:26:54;-1.50;99.90
34201;DHT22;20469;55.638;37.670;2023-02-28T18:29:27;-1.60;99.90
34201;DHT22;20469;55.638;37.670;2023-02-28T18:31:56;-1.60;99.90
34201;DHT22;20469;55.638;37.670;2023-02-28T18:34:26;-1.70;99.90
34201;DHT22;20469;55.638;37.670;2023-02-28T18:36:54;-1.60;99.90
34201;DHT22;20469;55.638;37.670;2023-02-28T18:39:23;-1.80;99.90
34201;DHT22;20469;55.638;37.670;2023-02-28T18:41:50;-1.60;99.90
34201;DHT22;20469;55.638;37.670;2023-02-28T18:44:18;-1.50;99.90